sensor_id;sensor_type;location;lat;lon;timestamp;temperature;humidity
10129;DHT22;5104;50.720;7.044;2022-12-16T00:01:03;-7.50;99.90
10129;DHT22;5104;50.720;7.044;2022-12-16T00:03:30;-7.50;99.90
10129;DHT22;5104;50.720;7.044;2022-12-16T00:05:57;-7.60;99.90
10129;DHT22;5104;50.720;7.044;2022-12-16T00:08:25;-7.60;99.90
10129;DHT22;5104;50.720;7.044;2022-12-16T00:10:56;-7.70;99.90
10129;DHT22;5104;50.720;7.044;2022-12-16T00:13:23;-7.60;99.90
10129;DHT22;5104;50.720;7.044;2022-12-16T00:15:50;-7.70;99.90
10129;DHT22;5104;50.720;7.044;2022-12-16T00:18:17;-7.70;99.90
10129;DHT22;5104;50.720;7.044;2022-12-16T00:20:45;-7.70;99.90
10129;DHT22;5104;50.720;7.044;2022-12-16T00:23:12;-7.70;99.90
10129;DHT22;5104;50.720;7.044;2022-12-16T00:25:42;-7.70;99.90
10129;DHT22;5104;50.720;7.044;2022-12-16T00:28:10;-7.60;99.90
10129;DHT22;5104;50.720;7.044;2022-12-16T00:30:37;-7.60;99.90
10129;DHT22;5104;50.720;7.044;2022-12-16T00:33:04;-7.60;99.90
10129;DHT22;5104;50.720;7.044;2022-12-16T00:35:31;-7.70;99.90
10129;DHT22;5104;50.720;7.044;2022-12-16T00:37:58;-7.70;99.90
10129;DHT22;5104;50.720;7.044;2022-12-16T00:40:26;-7.60;99.90
10129;DHT22;5104;50.720;7.044;2022-12-16T00:42:54;-7.60;99.90
10129;DHT22;5104;50.720;7.044;2022-12-16T00:45:21;-7.70;99.90
10129;DHT22;5104;50.720;7.044;2022-12-16T00:47:49;-7.70;99.90
10129;DHT22;5104;50.720;7.044;2022-12-16T00:50:16;-7.80;99.90
10129;DHT22;5104;50.720;7.044;2022-12-16T00:52:43;-7.90;99.90
10129;DHT22;5104;50.720;7.044;2022-12-16T00:55:10;-7.90;99.90
10129;DHT22;5104;50.720;7.044;2022-12-16T00:57:37;-7.90;99.90
10129;DHT22;5104;50.720;7.044;2022-12-16T01:00:08;-7.90;99.90
10129;DHT22;5104;50.720;7.044;2022-12-16T01:02:38;-7.90;99.90
10129;DHT22;5104;50.720;7.044;2022-12-16T01:05:05;-7.90;99.90
10129;DHT22;5104;50.720;7.044;2022-12-16T01:07:32;-7.80;99.90
10129;DHT22;5104;50.720;7.044;2022-12-16T01:09:59;-7.80;99.90
10129;DHT22;5104;50.720;7.044;2022-12-16T01:12:26;-7.80;99.90
10129;DHT22;5104;50.720;7.044;2022-12-16T01:14:53;-7.80;99.90
10129;DHT22;5104;50.720;7.044;2022-12-16T01:17:21;-7.90;99.90
10129;DHT22;5104;50.720;7.044;2022-12-16T01:19:50;-7.90;99.90
10129;DHT22;5104;50.720;7.044;2022-12-16T01:22:17;-7.90;99.90
10129;DHT22;5104;50.720;7.044;2022-12-16T01:24:44;-7.80;99.90
10129;DHT22;5104;50.720;7.044;2022-12-16T01:27:11;-7.80;99.90
10129;DHT22;5104;50.720;7.044;2022-12-16T01:29:38;-7.80;99.90
10129;DHT22;5104;50.720;7.044;2022-12-16T01:32:06;-7.80;99.90
10129;DHT22;5104;50.720;7.044;2022-12-16T01:34:34;-7.80;99.90
10129;DHT22;5104;50.720;7.044;2022-12-16T01:37:01;-7.80;99.90
10129;DHT22;5104;50.720;7.044;2022-12-16T01:39:28;-7.90;99.90
10129;DHT22;5104;50.720;7.044;2022-12-16T01:41:55;-7.90;99.90
10129;DHT22;5104;50.720;7.044;2022-12-16T01:44:24;-7.90;99.90
10129;DHT22;5104;50.720;7.044;2022-12-16T01:46:55;-7.90;99.90
10129;DHT22;5104;50.720;7.044;2022-12-16T01:49:25;-7.90;99.90
10129;DHT22;5104;50.720;7.044;2022-12-16T01:51:57;-7.80;99.90
10129;DHT22;5104;50.720;7.044;2022-12-16T01:54:27;-7.80;99.90
10129;DHT22;5104;50.720;7.044;2022-12-16T01:56:57;-7.80;99.90
10129;DHT22;5104;50.720;7.044;2022-12-16T01:59:27;-7.90;99.90
10129;DHT22;5104;50.720;7.044;2022-12-16T02:01:56;-7.90;99.90
10129;DHT22;5104;50.720;7.044;2022-12-16T02:04:23;-7.90;99.90
10129;DHT22;5104;50.720;7.044;2022-12-16T02:06:50;-8.00;99.90
10129;DHT22;5104;50.720;7.044;2022-12-16T02:09:19;-8.00;99.90
10129;DHT22;5104;50.720;7.044;2022-12-16T02:12:04;-8.00;99.90
10129;DHT22;5104;50.720;7.044;2022-12-16T02:14:49;-8.00;99.90
10129;DHT22;5104;50.720;7.044;2022-12-16T02:17:23;-8.00;99.90
10129;DHT22;5104;50.720;7.044;2022-12-16T02:23:03;-8.00;99.90
10129;DHT22;5104;50.720;7.044;2022-12-16T02:25:59;-8.10;99.90
10129;DHT22;5104;50.720;7.044;2022-12-16T02:28:39;-8.20;99.90
10129;DHT22;5104;50.720;7.044;2022-12-16T02:31:22;-8.20;99.90
10129;DHT22;5104;50.720;7.044;2022-12-16T02:34:08;-8.20;99.90
10129;DHT22;5104;50.720;7.044;2022-12-16T02:36:51;-8.10;99.90
10129;DHT22;5104;50.720;7.044;2022-12-16T02:39:26;-8.10;99.90
10129;DHT22;5104;50.720;7.044;2022-12-16T02:42:00;-8.10;99.90
10129;DHT22;5104;50.720;7.044;2022-12-16T02:44:33;-8.20;99.90
10129;DHT22;5104;50.720;7.044;2022-12-16T02:47:02;-8.10;99.90
10129;DHT22;5104;50.720;7.044;2022-12-16T02:49:45;-8.00;99.90
10129;DHT22;5104;50.720;7.044;2022-12-16T02:52:14;-7.90;99.90
10129;DHT22;5104;50.720;7.044;2022-12-16T02:54:41;-7.90;99.90
10129;DHT22;5104;50.720;7.044;2022-12-16T02:57:21;-8.00;99.90
10129;DHT22;5104;50.720;7.044;2022-12-16T02:59:56;-8.00;99.90
10129;DHT22;5104;50.720;7.044;2022-12-16T03:02:32;-8.00;99.90
10129;DHT22;5104;50.720;7.044;2022-12-16T03:05:05;-8.00;99.90
10129;DHT22;5104;50.720;7.044;2022-12-16T03:07:37;-8.00;99.90
10129;DHT22;5104;50.720;7.044;2022-12-16T03:10:09;-8.00;99.90
10129;DHT22;5104;50.720;7.044;2022-12-16T03:12:37;-8.10;99.90
10129;DHT22;5104;50.720;7.044;2022-12-16T03:15:07;-8.10;99.90
10129;DHT22;5104;50.720;7.044;2022-12-16T03:17:37;-8.20;99.90
10129;DHT22;5104;50.720;7.044;2022-12-16T03:20:09;-8.20;99.90
10129;DHT22;5104;50.720;7.044;2022-12-16T03:22:41;-8.30;99.90
10129;DHT22;5104;50.720;7.044;2022-12-16T03:25:10;-8.20;99.90
10129;DHT22;5104;50.720;7.044;2022-12-16T03:27:41;-8.30;99.90
10129;DHT22;5104;50.720;7.044;2022-12-16T03:30:14;-8.20;99.90
10129;DHT22;5104;50.720;7.044;2022-12-16T03:32:47;-8.20;99.90
10129;DHT22;5104;50.720;7.044;2022-12-16T03:35:19;-8.20;99.90
10129;DHT22;5104;50.720;7.044;2022-12-16T03:37:50;-8.30;99.90
10129;DHT22;5104;50.720;7.044;2022-12-16T03:40:18;-8.30;99.90
10129;DHT22;5104;50.720;7.044;2022-12-16T03:42:46;-8.30;99.90
10129;DHT22;5104;50.720;7.044;2022-12-16T03:45:16;-8.10;99.90
10129;DHT22;5104;50.720;7.044;2022-12-16T03:47:49;-8.20;99.90
10129;DHT22;5104;50.720;7.044;2022-12-16T03:50:17;-8.20;99.90
10129;DHT22;5104;50.720;7.044;2022-12-16T03:52:45;-8.10;99.90
10129;DHT22;5104;50.720;7.044;2022-12-16T03:55:12;-8.20;99.90
10129;DHT22;5104;50.720;7.044;2022-12-16T03:57:39;-8.20;99.90
10129;DHT22;5104;50.720;7.044;2022-12-16T04:00:07;-8.20;99.90
10129;DHT22;5104;50.720;7.044;2022-12-16T04:02:34;-8.30;99.90
10129;DHT22;5104;50.720;7.044;2022-12-16T04:05:03;-8.40;99.90
10129;DHT22;5104;50.720;7.044;2022-12-16T04:07:30;-8.40;99.90
10129;DHT22;5104;50.720;7.044;2022-12-16T04:09:56;-8.40;99.90
10129;DHT22;5104;50.720;7.044;2022-12-16T04:12:23;-8.30;99.90
10129;DHT22;5104;50.720;7.044;2022-12-16T04:15:08;-8.30;99.90
10129;DHT22;5104;50.720;7.044;2022-12-16T04:17:53;-8.30;99.90
10129;DHT22;5104;50.720;7.044;2022-12-16T04:20:43;-8.30;99.90
10129;DHT22;5104;50.720;7.044;2022-12-16T04:23:29;-8.30;99.90
10129;DHT22;5104;50.720;7.044;2022-12-16T04:26:15;-8.20;99.90
10129;DHT22;5104;50.720;7.044;2022-12-16T04:28:42;-8.20;99.90
10129;DHT22;5104;50.720;7.044;2022-12-16T04:31:08;-8.20;99.90
10129;DHT22;5104;50.720;7.044;2022-12-16T04:33:35;-8.20;99.90
10129;DHT22;5104;50.720;7.044;2022-12-16T04:36:21;-8.20;99.90
10129;DHT22;5104;50.720;7.044;2022-12-16T04:39:06;-8.10;99.90
10129;DHT22;5104;50.720;7.044;2022-12-16T04:41:53;-8.10;99.90
10129;DHT22;5104;50.720;7.044;2022-12-16T04:44:37;-8.30;99.90
10129;DHT22;5104;50.720;7.044;2022-12-16T04:47:21;-8.30;99.90
10129;DHT22;5104;50.720;7.044;2022-12-16T04:50:06;-8.20;99.90
10129;DHT22;5104;50.720;7.044;2022-12-16T04:52:52;-8.30;99.90
10129;DHT22;5104;50.720;7.044;2022-12-16T04:55:37;-8.40;99.90
10129;DHT22;5104;50.720;7.044;2022-12-16T04:58:21;-8.40;99.90
10129;DHT22;5104;50.720;7.044;2022-12-16T05:01:06;-8.40;99.90
10129;DHT22;5104;50.720;7.044;2022-12-16T05:03:50;-8.40;99.90
10129;DHT22;5104;50.720;7.044;2022-12-16T05:06:34;-8.40;99.90
10129;DHT22;5104;50.720;7.044;2022-12-16T05:09:20;-8.40;99.90
10129;DHT22;5104;50.720;7.044;2022-12-16T05:12:05;-8.50;99.90
10129;DHT22;5104;50.720;7.044;2022-12-16T05:14:49;-8.50;99.90
10129;DHT22;5104;50.720;7.044;2022-12-16T05:17:33;-8.50;99.90
10129;DHT22;5104;50.720;7.044;2022-12-16T05:20:18;-8.40;99.90
10129;DHT22;5104;50.720;7.044;2022-12-16T05:23:02;-8.30;99.90
10129;DHT22;5104;50.720;7.044;2022-12-16T05:25:47;-8.30;99.90
10129;DHT22;5104;50.720;7.044;2022-12-16T05:28:31;-8.30;99.90
10129;DHT22;5104;50.720;7.044;2022-12-16T05:31:15;-8.30;99.90
10129;DHT22;5104;50.720;7.044;2022-12-16T05:34:00;-8.40;99.90
10129;DHT22;5104;50.720;7.044;2022-12-16T05:36:44;-8.40;99.90
10129;DHT22;5104;50.720;7.044;2022-12-16T05:39:28;-8.50;99.90
10129;DHT22;5104;50.720;7.044;2022-12-16T05:42:16;-8.50;99.90
10129;DHT22;5104;50.720;7.044;2022-12-16T05:45:00;-8.60;99.90
10129;DHT22;5104;50.720;7.044;2022-12-16T05:47:47;-8.50;99.90
10129;DHT22;5104;50.720;7.044;2022-12-16T05:50:31;-8.50;99.90
10129;DHT22;5104;50.720;7.044;2022-12-16T05:53:15;-8.60;99.90
10129;DHT22;5104;50.720;7.044;2022-12-16T05:56:00;-8.50;99.90
10129;DHT22;5104;50.720;7.044;2022-12-16T05:58:46;-8.60;99.90
10129;DHT22;5104;50.720;7.044;2022-12-16T06:01:30;-8.50;99.90
10129;DHT22;5104;50.720;7.044;2022-12-16T06:04:19;-8.40;99.90
10129;DHT22;5104;50.720;7.044;2022-12-16T06:07:04;-8.30;99.90
10129;DHT22;5104;50.720;7.044;2022-12-16T06:09:48;-8.30;99.90
10129;DHT22;5104;50.720;7.044;2022-12-16T06:12:32;-8.30;99.90
10129;DHT22;5104;50.720;7.044;2022-12-16T06:15:18;-8.30;99.90
10129;DHT22;5104;50.720;7.044;2022-12-16T06:18:16;-8.30;99.90
10129;DHT22;5104;50.720;7.044;2022-12-16T06:21:01;-8.40;99.90
10129;DHT22;5104;50.720;7.044;2022-12-16T06:23:45;-8.40;99.90
10129;DHT22;5104;50.720;7.044;2022-12-16T06:26:44;-8.40;99.90
10129;DHT22;5104;50.720;7.044;2022-12-16T06:29:28;-8.50;99.90
10129;DHT22;5104;50.720;7.044;2022-12-16T06:32:14;-8.40;99.90
10129;DHT22;5104;50.720;7.044;2022-12-16T06:34:58;-8.50;99.90
10129;DHT22;5104;50.720;7.044;2022-12-16T06:37:46;-8.50;99.90
10129;DHT22;5104;50.720;7.044;2022-12-16T06:40:30;-8.60;99.90
10129;DHT22;5104;50.720;7.044;2022-12-16T06:43:14;-8.50;99.90
10129;DHT22;5104;50.720;7.044;2022-12-16T06:45:58;-8.50;99.90
10129;DHT22;5104;50.720;7.044;2022-12-16T06:48:43;-8.50;99.90
10129;DHT22;5104;50.720;7.044;2022-12-16T06:51:28;-8.50;99.90
10129;DHT22;5104;50.720;7.044;2022-12-16T06:54:12;-8.50;99.90
10129;DHT22;5104;50.720;7.044;2022-12-16T06:56:56;-8.40;99.90
10129;DHT22;5104;50.720;7.044;2022-12-16T06:59:40;-8.40;99.90
10129;DHT22;5104;50.720;7.044;2022-12-16T07:02:25;-8.40;99.90
10129;DHT22;5104;50.720;7.044;2022-12-16T07:05:10;-8.30;99.90
10129;DHT22;5104;50.720;7.044;2022-12-16T07:07:55;-8.40;99.90
10129;DHT22;5104;50.720;7.044;2022-12-16T07:10:50;-8.40;99.90
10129;DHT22;5104;50.720;7.044;2022-12-16T07:13:35;-8.50;99.90
10129;DHT22;5104;50.720;7.044;2022-12-16T07:16:19;-8.50;99.90
10129;DHT22;5104;50.720;7.044;2022-12-16T07:19:03;-8.40;99.90
10129;DHT22;5104;50.720;7.044;2022-12-16T07:21:49;-8.40;99.90
10129;DHT22;5104;50.720;7.044;2022-12-16T07:24:33;-8.30;99.90
10129;DHT22;5104;50.720;7.044;2022-12-16T07:27:17;-8.20;99.90
10129;DHT22;5104;50.720;7.044;2022-12-16T07:29:58;-8.40;99.90
10129;DHT22;5104;50.720;7.044;2022-12-16T07:32:42;-8.40;99.90
10129;DHT22;5104;50.720;7.044;2022-12-16T07:35:26;-8.30;99.90
10129;DHT22;5104;50.720;7.044;2022-12-16T07:38:12;-8.30;99.90
10129;DHT22;5104;50.720;7.044;2022-12-16T07:40:56;-8.20;99.90
10129;DHT22;5104;50.720;7.044;2022-12-16T07:43:40;-8.20;99.90
10129;DHT22;5104;50.720;7.044;2022-12-16T07:46:24;-8.10;99.90
10129;DHT22;5104;50.720;7.044;2022-12-16T07:49:09;-8.10;99.90
10129;DHT22;5104;50.720;7.044;2022-12-16T07:51:55;-8.20;99.90
10129;DHT22;5104;50.720;7.044;2022-12-16T07:54:49;-8.00;99.90
10129;DHT22;5104;50.720;7.044;2022-12-16T07:57:33;-8.00;99.90
10129;DHT22;5104;50.720;7.044;2022-12-16T08:00:18;-8.10;99.90
10129;DHT22;5104;50.720;7.044;2022-12-16T08:03:02;-8.20;99.90
10129;DHT22;5104;50.720;7.044;2022-12-16T08:05:48;-8.10;99.90
10129;DHT22;5104;50.720;7.044;2022-12-16T08:08:32;-8.00;99.90
10129;DHT22;5104;50.720;7.044;2022-12-16T08:11:18;-7.90;99.90
10129;DHT22;5104;50.720;7.044;2022-12-16T08:14:03;-7.90;99.90
10129;DHT22;5104;50.720;7.044;2022-12-16T08:16:47;-7.80;99.90
10129;DHT22;5104;50.720;7.044;2022-12-16T08:19:32;-7.80;99.90
10129;DHT22;5104;50.720;7.044;2022-12-16T08:22:16;-7.80;99.90
10129;DHT22;5104;50.720;7.044;2022-12-16T08:25:00;-7.70;99.90
10129;DHT22;5104;50.720;7.044;2022-12-16T08:27:46;-7.60;99.90
10129;DHT22;5104;50.720;7.044;2022-12-16T08:30:36;-7.50;99.90
10129;DHT22;5104;50.720;7.044;2022-12-16T08:33:20;-7.40;99.90
10129;DHT22;5104;50.720;7.044;2022-12-16T08:36:05;-7.40;99.90
10129;DHT22;5104;50.720;7.044;2022-12-16T08:38:50;-7.40;99.90
10129;DHT22;5104;50.720;7.044;2022-12-16T08:41:35;-7.30;99.90
10129;DHT22;5104;50.720;7.044;2022-12-16T08:44:20;-7.20;99.90
10129;DHT22;5104;50.720;7.044;2022-12-16T08:47:05;-7.10;99.90
10129;DHT22;5104;50.720;7.044;2022-12-16T08:49:49;-7.10;99.90
10129;DHT22;5104;50.720;7.044;2022-12-16T08:52:33;-6.90;99.90
10129;DHT22;5104;50.720;7.044;2022-12-16T08:55:18;-6.80;99.90
10129;DHT22;5104;50.720;7.044;2022-12-16T08:58:02;-6.70;99.90
10129;DHT22;5104;50.720;7.044;2022-12-16T09:00:50;-6.60;99.90
10129;DHT22;5104;50.720;7.044;2022-12-16T09:03:35;-6.60;99.90
10129;DHT22;5104;50.720;7.044;2022-12-16T09:06:19;-6.50;99.90
10129;DHT22;5104;50.720;7.044;2022-12-16T09:09:04;-6.40;99.90
10129;DHT22;5104;50.720;7.044;2022-12-16T09:11:49;-6.30;99.90
10129;DHT22;5104;50.720;7.044;2022-12-16T09:14:33;-6.20;99.90
10129;DHT22;5104;50.720;7.044;2022-12-16T09:17:19;-6.10;99.90
10129;DHT22;5104;50.720;7.044;2022-12-16T09:20:06;-6.00;99.90
10129;DHT22;5104;50.720;7.044;2022-12-16T09:22:51;-5.90;99.90
10129;DHT22;5104;50.720;7.044;2022-12-16T09:25:35;-5.90;99.90
10129;DHT22;5104;50.720;7.044;2022-12-16T09:28:20;-5.70;99.90
10129;DHT22;5104;50.720;7.044;2022-12-16T09:31:04;-5.70;99.90
10129;DHT22;5104;50.720;7.044;2022-12-16T09:33:53;-5.70;99.90
10129;DHT22;5104;50.720;7.044;2022-12-16T09:36:37;-5.60;99.90
10129;DHT22;5104;50.720;7.044;2022-12-16T09:39:22;-5.50;99.90
10129;DHT22;5104;50.720;7.044;2022-12-16T09:42:16;-5.30;99.90
10129;DHT22;5104;50.720;7.044;2022-12-16T09:45:10;-5.20;99.90
10129;DHT22;5104;50.720;7.044;2022-12-16T09:48:03;-5.10;99.90
10129;DHT22;5104;50.720;7.044;2022-12-16T09:50:55;-5.00;99.90
10129;DHT22;5104;50.720;7.044;2022-12-16T09:53:42;-4.90;99.90
10129;DHT22;5104;50.720;7.044;2022-12-16T09:56:30;-4.90;99.90
10129;DHT22;5104;50.720;7.044;2022-12-16T09:59:20;-4.80;99.90
10129;DHT22;5104;50.720;7.044;2022-12-16T10:02:09;-4.80;99.90
10129;DHT22;5104;50.720;7.044;2022-12-16T10:04:54;-4.90;99.90
10129;DHT22;5104;50.720;7.044;2022-12-16T10:07:45;-5.00;99.90
10129;DHT22;5104;50.720;7.044;2022-12-16T10:10:39;-4.90;99.90
10129;DHT22;5104;50.720;7.044;2022-12-16T10:13:30;-4.80;99.90
10129;DHT22;5104;50.720;7.044;2022-12-16T10:16:23;-4.70;99.90
10129;DHT22;5104;50.720;7.044;2022-12-16T10:19:25;-4.60;99.90
10129;DHT22;5104;50.720;7.044;2022-12-16T10:22:17;-4.40;99.90
10129;DHT22;5104;50.720;7.044;2022-12-16T10:25:11;-4.20;99.90
10129;DHT22;5104;50.720;7.044;2022-12-16T10:27:59;-4.10;99.90
10129;DHT22;5104;50.720;7.044;2022-12-16T10:30:45;-4.00;99.90
10129;DHT22;5104;50.720;7.044;2022-12-16T10:33:30;-3.90;99.90
10129;DHT22;5104;50.720;7.044;2022-12-16T10:36:17;-3.80;99.90
10129;DHT22;5104;50.720;7.044;2022-12-16T10:39:06;-3.70;99.90
10129;DHT22;5104;50.720;7.044;2022-12-16T10:41:59;-3.60;99.90
10129;DHT22;5104;50.720;7.044;2022-12-16T10:44:49;-3.50;99.90
10129;DHT22;5104;50.720;7.044;2022-12-16T10:47:35;-3.40;99.90
10129;DHT22;5104;50.720;7.044;2022-12-16T10:50:20;-3.20;99.90
10129;DHT22;5104;50.720;7.044;2022-12-16T10:53:12;-3.20;99.90
10129;DHT22;5104;50.720;7.044;2022-12-16T10:56:02;-3.10;99.90
10129;DHT22;5104;50.720;7.044;2022-12-16T10:58:59;-3.10;99.90
10129;DHT22;5104;50.720;7.044;2022-12-16T11:01:41;-3.00;99.90
10129;DHT22;5104;50.720;7.044;2022-12-16T11:04:33;-2.90;99.90
10129;DHT22;5104;50.720;7.044;2022-12-16T11:07:31;-2.80;99.90
10129;DHT22;5104;50.720;7.044;2022-12-16T11:10:30;-2.80;99.90
10129;DHT22;5104;50.720;7.044;2022-12-16T11:13:18;-2.60;99.90
10129;DHT22;5104;50.720;7.044;2022-12-16T11:16:10;-2.60;99.90
10129;DHT22;5104;50.720;7.044;2022-12-16T11:18:55;-2.60;99.90
10129;DHT22;5104;50.720;7.044;2022-12-16T11:21:40;-2.40;99.90
10129;DHT22;5104;50.720;7.044;2022-12-16T11:24:24;-2.20;99.90
10129;DHT22;5104;50.720;7.044;2022-12-16T11:27:14;-2.20;99.90
10129;DHT22;5104;50.720;7.044;2022-12-16T11:30:00;-2.20;99.90
10129;DHT22;5104;50.720;7.044;2022-12-16T11:32:54;-2.20;99.90
10129;DHT22;5104;50.720;7.044;2022-12-16T11:35:42;-2.10;99.90
10129;DHT22;5104;50.720;7.044;2022-12-16T11:38:40;-1.90;99.90
10129;DHT22;5104;50.720;7.044;2022-12-16T11:41:29;-1.70;99.90
10129;DHT22;5104;50.720;7.044;2022-12-16T11:44:19;-1.60;99.90
10129;DHT22;5104;50.720;7.044;2022-12-16T11:47:10;-1.60;99.90
10129;DHT22;5104;50.720;7.044;2022-12-16T11:49:58;-1.50;1.00
10129;DHT22;5104;50.720;7.044;2022-12-16T11:52:50;-1.40;1.00
10129;DHT22;5104;50.720;7.044;2022-12-16T11:55:35;-1.30;1.00
10129;DHT22;5104;50.720;7.044;2022-12-16T11:58:25;-1.30;1.00
10129;DHT22;5104;50.720;7.044;2022-12-16T12:01:16;-1.20;1.00
10129;DHT22;5104;50.720;7.044;2022-12-16T12:04:01;-1.20;1.00
10129;DHT22;5104;50.720;7.044;2022-12-16T12:07:21;-1.30;1.00
10129;DHT22;5104;50.720;7.044;2022-12-16T12:10:26;-1.20;1.00
10129;DHT22;5104;50.720;7.044;2022-12-16T12:13:21;-1.10;1.00
10129;DHT22;5104;50.720;7.044;2022-12-16T12:16:17;-1.00;1.00
10129;DHT22;5104;50.720;7.044;2022-12-16T12:19:07;-1.00;1.00
10129;DHT22;5104;50.720;7.044;2022-12-16T12:21:59;-0.90;1.00
10129;DHT22;5104;50.720;7.044;2022-12-16T12:24:52;-0.90;1.00
10129;DHT22;5104;50.720;7.044;2022-12-16T12:27:58;-0.90;1.00
10129;DHT22;5104;50.720;7.044;2022-12-16T12:30:53;-0.80;99.90
10129;DHT22;5104;50.720;7.044;2022-12-16T12:34:01;-0.80;99.90
10129;DHT22;5104;50.720;7.044;2022-12-16T12:36:52;-0.80;1.00
10129;DHT22;5104;50.720;7.044;2022-12-16T12:39:43;-0.90;44.50
10129;DHT22;5104;50.720;7.044;2022-12-16T12:42:36;-0.80;99.90
10129;DHT22;5104;50.720;7.044;2022-12-16T12:45:37;-0.70;99.90
10129;DHT22;5104;50.720;7.044;2022-12-16T12:48:27;-0.70;1.00
10129;DHT22;5104;50.720;7.044;2022-12-16T12:51:20;-0.80;1.00
10129;DHT22;5104;50.720;7.044;2022-12-16T12:54:14;-0.80;99.90
10129;DHT22;5104;50.720;7.044;2022-12-16T12:57:03;-0.90;21.60
10129;DHT22;5104;50.720;7.044;2022-12-16T12:59:54;-0.80;99.90
10129;DHT22;5104;50.720;7.044;2022-12-16T13:02:45;-0.80;64.80
10129;DHT22;5104;50.720;7.044;2022-12-16T13:05:33;-0.80;1.00
10129;DHT22;5104;50.720;7.044;2022-12-16T13:08:54;-0.70;5.00
10129;DHT22;5104;50.720;7.044;2022-12-16T13:12:24;-0.70;67.60
10129;DHT22;5104;50.720;7.044;2022-12-16T13:15:18;-0.80;99.90
10129;DHT22;5104;50.720;7.044;2022-12-16T13:21:46;-0.90;1.00
10129;DHT22;5104;50.720;7.044;2022-12-16T13:24:41;-0.90;1.00
10129;DHT22;5104;50.720;7.044;2022-12-16T13:27:27;-0.90;1.00
10129;DHT22;5104;50.720;7.044;2022-12-16T13:30:23;-0.90;1.00
10129;DHT22;5104;50.720;7.044;2022-12-16T13:33:21;-1.00;1.00
10129;DHT22;5104;50.720;7.044;2022-12-16T13:36:07;-1.00;1.00
10129;DHT22;5104;50.720;7.044;2022-12-16T13:38:54;-1.00;1.00
10129;DHT22;5104;50.720;7.044;2022-12-16T13:41:56;-1.00;1.00
10129;DHT22;5104;50.720;7.044;2022-12-16T13:44:56;-1.00;1.00
10129;DHT22;5104;50.720;7.044;2022-12-16T13:54:35;-0.90;1.00
10129;DHT22;5104;50.720;7.044;2022-12-16T13:57:22;-0.90;1.00
10129;DHT22;5104;50.720;7.044;2022-12-16T14:00:17;-0.80;1.00
10129;DHT22;5104;50.720;7.044;2022-12-16T14:03:03;-0.90;1.00
10129;DHT22;5104;50.720;7.044;2022-12-16T14:05:49;-0.90;1.00
10129;DHT22;5104;50.720;7.044;2022-12-16T14:08:37;-0.90;1.00
10129;DHT22;5104;50.720;7.044;2022-12-16T14:11:26;-1.00;1.00
10129;DHT22;5104;50.720;7.044;2022-12-16T14:14:18;-1.00;1.00
10129;DHT22;5104;50.720;7.044;2022-12-16T14:17:10;-1.00;1.00
10129;DHT22;5104;50.720;7.044;2022-12-16T14:20:02;-1.10;1.00
10129;DHT22;5104;50.720;7.044;2022-12-16T14:22:54;-1.10;1.00
10129;DHT22;5104;50.720;7.044;2022-12-16T14:25:46;-1.10;1.00
10129;DHT22;5104;50.720;7.044;2022-12-16T14:28:37;-1.20;1.00
10129;DHT22;5104;50.720;7.044;2022-12-16T14:31:25;-1.20;1.00
10129;DHT22;5104;50.720;7.044;2022-12-16T14:34:14;-1.20;1.00
10129;DHT22;5104;50.720;7.044;2022-12-16T14:36:59;-1.20;1.00
10129;DHT22;5104;50.720;7.044;2022-12-16T14:39:51;-1.30;1.00
10129;DHT22;5104;50.720;7.044;2022-12-16T14:42:39;-1.40;1.00
10129;DHT22;5104;50.720;7.044;2022-12-16T14:45:28;-1.40;1.00
10129;DHT22;5104;50.720;7.044;2022-12-16T14:48:21;-1.40;1.00
10129;DHT22;5104;50.720;7.044;2022-12-16T14:51:31;-1.40;1.00
10129;DHT22;5104;50.720;7.044;2022-12-16T14:54:21;-1.50;43.80
10129;DHT22;5104;50.720;7.044;2022-12-16T14:57:21;-1.50;96.00
10129;DHT22;5104;50.720;7.044;2022-12-16T15:00:14;-1.60;83.50
10129;DHT22;5104;50.720;7.044;2022-12-16T15:02:58;-1.70;99.90
10129;DHT22;5104;50.720;7.044;2022-12-16T15:05:45;-1.80;99.90
10129;DHT22;5104;50.720;7.044;2022-12-16T15:08:32;-1.90;99.90
10129;DHT22;5104;50.720;7.044;2022-12-16T15:11:19;-2.10;99.90
10129;DHT22;5104;50.720;7.044;2022-12-16T15:14:05;-2.20;99.90
10129;DHT22;5104;50.720;7.044;2022-12-16T15:16:56;-2.30;99.90
10129;DHT22;5104;50.720;7.044;2022-12-16T15:19:43;-2.50;99.90
10129;DHT22;5104;50.720;7.044;2022-12-16T15:22:29;-2.60;99.90
10129;DHT22;5104;50.720;7.044;2022-12-16T15:25:21;-2.70;99.90
10129;DHT22;5104;50.720;7.044;2022-12-16T15:28:22;-2.70;99.90
10129;DHT22;5104;50.720;7.044;2022-12-16T15:31:20;-2.70;99.90
10129;DHT22;5104;50.720;7.044;2022-12-16T15:34:25;-2.60;99.90
10129;DHT22;5104;50.720;7.044;2022-12-16T15:37:22;-2.60;99.90
10129;DHT22;5104;50.720;7.044;2022-12-16T15:40:24;-2.70;99.90
10129;DHT22;5104;50.720;7.044;2022-12-16T15:43:20;-2.60;99.90
10129;DHT22;5104;50.720;7.044;2022-12-16T15:46:15;-2.60;99.90
10129;DHT22;5104;50.720;7.044;2022-12-16T15:49:00;-2.60;99.90
10129;DHT22;5104;50.720;7.044;2022-12-16T15:51:47;-2.60;99.90
10129;DHT22;5104;50.720;7.044;2022-12-16T15:54:32;-2.50;99.90
10129;DHT22;5104;50.720;7.044;2022-12-16T15:57:26;-2.50;99.90
10129;DHT22;5104;50.720;7.044;2022-12-16T16:00:20;-2.50;99.90
10129;DHT22;5104;50.720;7.044;2022-12-16T16:03:18;-2.40;99.90
10129;DHT22;5104;50.720;7.044;2022-12-16T16:06:03;-2.40;99.90
10129;DHT22;5104;50.720;7.044;2022-12-16T16:08:52;-2.40;99.90
10129;DHT22;5104;50.720;7.044;2022-12-16T16:11:37;-2.40;99.90
10129;DHT22;5104;50.720;7.044;2022-12-16T16:14:21;-2.30;99.90
10129;DHT22;5104;50.720;7.044;2022-12-16T16:17:18;-2.30;99.90
10129;DHT22;5104;50.720;7.044;2022-12-16T16:20:04;-2.20;99.90
10129;DHT22;5104;50.720;7.044;2022-12-16T16:22:49;-2.20;99.90
10129;DHT22;5104;50.720;7.044;2022-12-16T16:25:35;-2.20;99.90
10129;DHT22;5104;50.720;7.044;2022-12-16T16:28:19;-2.10;99.90
10129;DHT22;5104;50.720;7.044;2022-12-16T16:31:03;-2.00;99.90
10129;DHT22;5104;50.720;7.044;2022-12-16T16:33:48;-2.00;99.90
10129;DHT22;5104;50.720;7.044;2022-12-16T16:36:32;-1.90;99.90
10129;DHT22;5104;50.720;7.044;2022-12-16T16:39:22;-1.90;99.90
10129;DHT22;5104;50.720;7.044;2022-12-16T16:42:09;-1.90;99.90
10129;DHT22;5104;50.720;7.044;2022-12-16T16:44:53;-1.90;99.90
10129;DHT22;5104;50.720;7.044;2022-12-16T16:47:38;-1.90;99.90
10129;DHT22;5104;50.720;7.044;2022-12-16T16:50:22;-1.80;99.90
10129;DHT22;5104;50.720;7.044;2022-12-16T16:53:12;-1.80;99.90
10129;DHT22;5104;50.720;7.044;2022-12-16T16:55:58;-1.80;99.90
10129;DHT22;5104;50.720;7.044;2022-12-16T16:58:44;-1.70;99.90
10129;DHT22;5104;50.720;7.044;2022-12-16T17:01:29;-1.70;99.90
10129;DHT22;5104;50.720;7.044;2022-12-16T17:04:13;-1.80;99.90
10129;DHT22;5104;50.720;7.044;2022-12-16T17:06:57;-1.80;99.90
10129;DHT22;5104;50.720;7.044;2022-12-16T17:09:41;-1.80;99.90
10129;DHT22;5104;50.720;7.044;2022-12-16T17:12:28;-1.80;99.90
10129;DHT22;5104;50.720;7.044;2022-12-16T17:15:17;-1.90;99.90
10129;DHT22;5104;50.720;7.044;2022-12-16T17:18:02;-1.90;99.90
10129;DHT22;5104;50.720;7.044;2022-12-16T17:20:46;-1.90;99.90
10129;DHT22;5104;50.720;7.044;2022-12-16T17:23:31;-2.00;99.90
10129;DHT22;5104;50.720;7.044;2022-12-16T17:26:15;-1.90;99.90
10129;DHT22;5104;50.720;7.044;2022-12-16T17:29:02;-2.00;99.90
10129;DHT22;5104;50.720;7.044;2022-12-16T17:31:48;-2.00;99.90
10129;DHT22;5104;50.720;7.044;2022-12-16T17:34:32;-2.00;99.90
10129;DHT22;5104;50.720;7.044;2022-12-16T17:37:16;-2.00;99.90
10129;DHT22;5104;50.720;7.044;2022-12-16T17:40:01;-2.00;99.90
10129;DHT22;5104;50.720;7.044;2022-12-16T17:42:45;-1.90;99.90
10129;DHT22;5104;50.720;7.044;2022-12-16T17:45:30;-1.90;99.90